createdAt,value
2022-09-20T00:01:47.172Z,24.04
2022-09-20T00:04:36.920Z,24.05
2022-09-20T00:07:26.991Z,24.07
2022-09-20T00:10:17.098Z,24.07
2022-09-20T00:13:08.988Z,24.07
2022-09-20T00:15:59.599Z,24.08
2022-09-20T00:18:53.440Z,24.08
2022-09-20T00:21:43.781Z,24.11
2022-09-20T00:24:36.623Z,24.15
2022-09-20T00:27:27.226Z,24.19
2022-09-20T00:30:17.545Z,24.21
2022-09-20T00:33:07.620Z,24.22
2022-09-20T00:35:59.943Z,24.26
2022-09-20T00:38:49.875Z,24.29
2022-09-20T00:41:40.176Z,24.29
2022-09-20T00:44:51.450Z,24.30
2022-09-20T00:47:46.237Z,24.31
2022-09-20T00:50:42.479Z,24.30
2022-09-20T00:53:37.941Z,24.27
2022-09-20T00:56:32.909Z,24.25
2022-09-20T00:59:26.644Z,24.23
2022-09-20T01:02:21.279Z,24.22
2022-09-20T01:05:14.765Z,24.23
2022-09-20T01:08:05.527Z,24.24
2022-09-20T01:10:55.633Z,24.26
2022-09-20T01:13:45.899Z,24.30
2022-09-20T01:16:36.960Z,24.32
2022-09-20T01:19:36.112Z,24.34
2022-09-20T01:22:33.830Z,24.35
2022-09-20T01:25:41.205Z,24.33
2022-09-20T01:28:31.955Z,24.32
2022-09-20T01:31:27.949Z,24.32
2022-09-20T01:34:22.872Z,24.30
2022-09-20T01:37:20.376Z,24.27
2022-09-20T01:40:20.156Z,24.23
2022-09-20T01:43:19.748Z,24.22
2022-09-20T01:46:23.091Z,24.19
2022-09-20T01:49:26.514Z,24.16
2022-09-20T01:52:41.787Z,24.13
2022-09-20T01:56:04.768Z,24.09
2022-09-20T01:59:28.585Z,24.08
2022-09-20T02:02:45.425Z,24.06
2022-09-20T02:05:53.161Z,24.05
2022-09-20T02:09:18.573Z,24.04
2022-09-20T02:12:45.432Z,24.01
2022-09-20T02:15:54.870Z,24.04
2022-09-20T02:19:02.834Z,24.11
2022-09-20T02:22:04.485Z,24.18
2022-09-20T02:25:04.122Z,24.22
2022-09-20T02:28:06.324Z,24.27
2022-09-20T02:31:03.787Z,24.30
2022-09-20T02:34:22.969Z,24.30
2022-09-20T02:37:36.813Z,24.29
2022-09-20T02:40:51.557Z,24.27
2022-09-20T02:43:53.740Z,24.28
2022-09-20T02:46:52.514Z,24.29
2022-09-20T02:49:53.121Z,24.30
2022-09-20T02:52:50.912Z,24.28
2022-09-20T02:55:49.905Z,24.25
2022-09-20T02:58:48.392Z,24.25
2022-09-20T03:01:47.647Z,24.23
2022-09-20T03:04:49.784Z,24.23
2022-09-20T03:07:56.232Z,24.23
2022-09-20T03:10:56.668Z,24.22
2022-09-20T03:14:02.998Z,24.20
2022-09-20T03:17:07.984Z,24.17
2022-09-20T03:20:09.993Z,24.15
2022-09-20T03:23:11.813Z,24.13
2022-09-20T03:26:10.530Z,24.12
2022-09-20T03:29:10.072Z,24.12
2022-09-20T03:32:15.244Z,24.14
2022-09-20T03:35:21.077Z,24.16
2022-09-20T03:38:32.319Z,24.18
2022-09-20T03:41:44.531Z,24.18
2022-09-20T03:44:50.640Z,24.20
2022-09-20T03:48:08.083Z,24.19
2022-09-20T03:51:23.771Z,24.17
2022-09-20T03:54:55.728Z,24.16
2022-09-20T03:58:10.574Z,24.12
2022-09-20T04:01:18.261Z,24.09
2022-09-20T04:04:15.127Z,24.06
2022-09-20T04:07:14.912Z,24.04
2022-09-20T04:10:26.645Z,24.03
2022-09-20T04:13:28.003Z,24.01
2022-09-20T04:16:28.901Z,24.00
2022-09-20T04:19:29.771Z,24.00
2022-09-20T04:22:26.787Z,24.04
2022-09-20T04:25:22.467Z,24.06
2022-09-20T04:28:20.712Z,24.07
2022-09-20T04:31:28.348Z,24.06
2022-09-20T04:34:24.373Z,24.05
2022-09-20T04:37:29.933Z,24.01
2022-09-20T04:40:35.928Z,23.95
2022-09-20T04:43:53.858Z,23.89
2022-09-20T04:47:08.448Z,23.87
2022-09-20T04:50:32.442Z,23.84
2022-09-20T04:53:53.656Z,23.81
2022-09-20T04:57:01.530Z,23.80
2022-09-20T05:00:07.255Z,23.78
2022-09-20T05:03:30.104Z,23.75
2022-09-20T05:07:04.621Z,23.78
2022-09-20T05:10:15.788Z,23.87
2022-09-20T05:13:25.123Z,23.95
2022-09-20T05:16:26.262Z,24.06
2022-09-20T05:19:29.768Z,24.17
2022-09-20T05:22:44.057Z,24.27
2022-09-20T05:26:07.960Z,24.34
2022-09-20T05:29:03.692Z,24.42
2022-09-20T05:32:00.889Z,24.47
2022-09-20T05:34:59.558Z,24.50
2022-09-20T05:37:59.373Z,24.54
2022-09-20T05:41:07.573Z,24.55
2022-09-20T05:44:09.058Z,24.58
2022-09-20T05:47:10.901Z,24.59
2022-09-20T05:50:10.317Z,24.59
2022-09-20T05:53:17.264Z,24.62
2022-09-20T05:56:15.573Z,24.64
2022-09-20T05:59:31.445Z,24.67
2022-09-20T06:02:41.368Z,24.70
2022-09-20T06:05:42.749Z,24.72
2022-09-20T06:08:51.926Z,24.74
2022-09-20T06:12:13.424Z,24.76
2022-09-20T06:15:13.277Z,24.74
2022-09-20T06:18:17.885Z,24.71
2022-09-20T06:21:17.854Z,24.71
2022-09-20T06:24:17.300Z,24.69
2022-09-20T06:27:12.128Z,24.67
2022-09-20T06:30:07.216Z,24.63
2022-09-20T06:32:59.566Z,24.59
2022-09-20T06:35:58.288Z,24.57
2022-09-20T06:39:17.685Z,24.56
2022-09-20T06:42:10.631Z,24.56
2022-09-20T06:45:00.821Z,24.59
2022-09-20T06:47:51.092Z,24.63
2022-09-20T06:50:43.453Z,24.66
2022-09-20T06:53:37.124Z,24.68
2022-09-20T06:56:29.667Z,24.72
2022-09-20T06:59:19.566Z,24.75
2022-09-20T07:02:09.911Z,24.79
2022-09-20T07:04:59.823Z,24.86
2022-09-20T07:07:50.651Z,24.92
2022-09-20T07:10:41.257Z,24.99
2022-09-20T07:13:31.183Z,25.06
2022-09-20T07:16:21.635Z,25.14
2022-09-20T07:19:11.662Z,25.21
2022-09-20T07:22:01.495Z,25.27
2022-09-20T07:24:51.309Z,25.35
2022-09-20T07:27:41.218Z,25.41
2022-09-20T07:30:31.008Z,25.46
2022-09-20T07:33:21.716Z,25.51
2022-09-20T07:36:13.661Z,25.55
2022-09-20T07:39:03.149Z,25.59
2022-09-20T07:41:53.189Z,25.63
2022-09-20T07:44:43.415Z,25.68
2022-09-20T07:47:35.357Z,25.71
2022-09-20T07:50:25.531Z,25.73
2022-09-20T07:53:14.860Z,25.75
2022-09-20T07:56:07.511Z,25.78
2022-09-20T07:58:57.665Z,25.78
2022-09-20T08:01:48.153Z,25.73
2022-09-20T08:04:38.118Z,25.66
2022-09-20T08:07:28.818Z,25.66
2022-09-20T08:10:18.947Z,25.73
2022-09-20T08:16:20.679Z,25.90
2022-09-20T08:19:15.354Z,25.98
2022-09-20T08:22:05.635Z,26.05
2022-09-20T08:24:55.861Z,26.14
2022-09-20T08:27:46.036Z,26.21
2022-09-20T08:30:36.013Z,26.30
2022-09-20T08:33:26.023Z,26.38
2022-09-20T08:36:18.713Z,26.46
2022-09-20T08:42:27.995Z,26.59
2022-09-20T08:45:33.578Z,26.68
2022-09-20T08:48:29.801Z,26.80
2022-09-20T08:51:23.483Z,26.93
2022-09-20T08:54:16.416Z,27.02
2022-09-20T08:57:12.745Z,27.14
2022-09-20T09:00:04.043Z,27.25
2022-09-20T09:02:58.418Z,27.33
2022-09-20T09:05:50.674Z,27.44
2022-09-20T09:08:41.614Z,27.54
2022-09-20T09:11:31.903Z,27.60
2022-09-20T09:14:45.029Z,27.72
2022-09-20T09:17:35.281Z,28.04
2022-09-20T09:20:26.859Z,28.83
2022-09-20T09:23:27.582Z,29.84
2022-09-20T09:26:21.376Z,30.87
2022-09-20T09:29:23.482Z,31.91
2022-09-20T09:32:26.632Z,32.73
2022-09-20T09:35:31.803Z,33.20
2022-09-20T09:38:24.276Z,33.08
2022-09-20T09:41:26.535Z,32.60
2022-09-20T09:44:25.260Z,31.88
2022-09-20T09:47:28.832Z,31.41
2022-09-20T09:50:26.956Z,31.16
2022-09-20T09:53:20.791Z,30.87
2022-09-20T09:56:33.859Z,30.55
2022-09-20T09:59:43.362Z,30.29
2022-09-20T10:02:53.460Z,30.04
2022-09-20T10:05:51.570Z,29.92
2022-09-20T10:08:51.295Z,29.91
2022-09-20T10:11:58.818Z,29.96
2022-09-20T10:15:00.385Z,29.97
2022-09-20T10:18:00.454Z,30.00
2022-09-20T10:21:02.655Z,30.01
2022-09-20T10:24:05.490Z,29.91
2022-09-20T10:27:12.883Z,29.87
2022-09-20T10:30:10.877Z,29.89
2022-09-20T10:33:12.778Z,29.92
2022-09-20T10:36:18.689Z,29.88
2022-09-20T10:39:21.249Z,29.81
2022-09-20T10:42:44.504Z,29.84
2022-09-20T10:46:08.848Z,29.78
2022-09-20T10:49:04.780Z,29.75
2022-09-20T10:52:10.143Z,29.82
2022-09-20T10:55:09.844Z,29.85
2022-09-20T10:58:37.116Z,29.84
2022-09-20T11:01:35.964Z,29.90
2022-09-20T11:04:44.060Z,29.99
2022-09-20T11:07:49.567Z,30.09
2022-09-20T11:10:43.678Z,30.14
2022-09-20T11:13:39.932Z,30.09
2022-09-20T11:16:36.059Z,30.02
2022-09-20T11:19:33.948Z,29.98
2022-09-20T11:22:32.673Z,29.89
2022-09-20T11:25:29.645Z,29.81
2022-09-20T11:28:23.093Z,29.84
2022-09-20T11:31:20.254Z,29.92
2022-09-20T11:34:18.101Z,30.01
2022-09-20T11:37:08.126Z,30.02
2022-09-20T11:40:10.283Z,30.00
2022-09-20T11:43:03.559Z,30.04
2022-09-20T11:45:59.819Z,30.06
2022-09-20T11:48:56.511Z,30.08
2022-09-20T11:52:15.246Z,30.06
2022-09-20T11:55:26.571Z,30.14
2022-09-20T11:58:22.478Z,30.13
2022-09-20T12:01:17.218Z,30.01
2022-09-20T12:04:32.975Z,29.96
2022-09-20T12:07:27.401Z,30.00
2022-09-20T12:10:26.434Z,30.05
2022-09-20T12:13:26.341Z,30.06
2022-09-20T12:16:36.489Z,30.11
2022-09-20T12:19:43.285Z,30.19
2022-09-20T12:22:32.897Z,30.25
2022-09-20T12:25:41.236Z,30.22
2022-09-20T12:28:39.080Z,30.10
2022-09-20T12:31:51.009Z,30.00
2022-09-20T12:34:41.132Z,30.01
2022-09-20T12:37:31.114Z,30.07
2022-09-20T12:40:26.281Z,30.10
2022-09-20T12:43:23.138Z,30.08
2022-09-20T12:46:24.794Z,30.03
2022-09-20T12:49:51.083Z,29.97
2022-09-20T12:52:58.922Z,29.88
2022-09-20T12:56:05.863Z,29.79
2022-09-20T12:58:57.118Z,29.70
2022-09-20T13:01:47.468Z,29.63
2022-09-20T13:04:55.748Z,29.61
2022-09-20T13:07:59.318Z,29.59
2022-09-20T13:10:51.943Z,29.53
2022-09-20T13:13:50.386Z,29.47
2022-09-20T13:16:47.643Z,29.47
2022-09-20T13:19:42.410Z,29.47
2022-09-20T13:22:37.199Z,29.53
2022-09-20T13:25:28.585Z,29.61
2022-09-20T13:28:29.507Z,29.66
2022-09-20T13:31:34.594Z,29.71
2022-09-20T13:34:26.351Z,29.74
2022-09-20T13:37:21.102Z,29.71
2022-09-20T13:40:20.920Z,29.67
2022-09-20T13:43:29.835Z,29.64
2022-09-20T13:46:23.631Z,29.58
2022-09-20T13:49:20.900Z,29.54
2022-09-20T13:52:25.332Z,29.50
2022-09-20T13:55:39.814Z,29.43
2022-09-20T13:58:32.878Z,29.35
2022-09-20T14:01:29.234Z,29.28
2022-09-20T14:04:21.397Z,29.22
2022-09-20T14:07:11.528Z,29.13
2022-09-20T14:10:01.673Z,29.06
2022-09-20T14:12:52.708Z,28.99
2022-09-20T14:15:46.504Z,28.91
2022-09-20T14:18:37.832Z,28.84
2022-09-20T14:21:29.649Z,28.78
2022-09-20T14:24:31.970Z,28.72
2022-09-20T14:27:23.077Z,28.64
2022-09-20T14:30:33.538Z,28.55
2022-09-20T14:33:24.474Z,28.46
2022-09-20T14:36:21.349Z,28.39
2022-09-20T14:39:19.678Z,28.33
2022-09-20T14:42:22.240Z,28.28
2022-09-20T14:45:25.519Z,28.22
2022-09-20T14:48:40.881Z,28.19
2022-09-20T14:51:30.411Z,28.15
2022-09-20T14:54:29.954Z,28.09
2022-09-20T14:57:23.721Z,28.00
2022-09-20T15:00:17.018Z,27.83
2022-09-20T15:03:21.232Z,27.66
2022-09-20T15:06:14.832Z,27.49
2022-09-20T15:09:04.839Z,27.25
2022-09-20T15:12:06.072Z,27.04
2022-09-20T15:14:55.828Z,26.97
2022-09-20T15:17:46.945Z,26.86
2022-09-20T15:20:36.906Z,26.69
2022-09-20T15:23:26.985Z,26.56
2022-09-20T15:26:18.209Z,26.45
2022-09-20T15:29:09.801Z,26.37
2022-09-20T15:31:59.907Z,26.22
2022-09-20T15:34:49.696Z,26.13
2022-09-20T15:37:40.393Z,26.08
2022-09-20T15:40:30.643Z,26.04
2022-09-20T15:43:24.084Z,25.97
2022-09-20T15:46:22.938Z,25.96
2022-09-20T15:49:14.548Z,25.99
2022-09-20T15:52:05.473Z,25.94
2022-09-20T15:54:59.498Z,25.86
2022-09-20T15:57:50.032Z,25.78
2022-09-20T16:00:40.559Z,25.75
2022-09-20T16:03:32.982Z,25.73
2022-09-20T16:06:24.101Z,25.70
2022-09-20T16:09:15.070Z,25.67
2022-09-20T16:12:05.677Z,25.66
2022-09-20T16:14:55.298Z,25.61
2022-09-20T16:18:02.695Z,25.59
2022-09-20T16:20:52.561Z,25.60
2022-09-20T16:23:44.873Z,25.60
2022-09-20T16:26:35.762Z,25.60
2022-09-20T16:29:28.440Z,25.61
2022-09-20T16:32:18.203Z,25.61
2022-09-20T16:35:10.168Z,25.60
2022-09-20T16:38:00.148Z,25.55
2022-09-20T16:40:54.261Z,25.48
2022-09-20T16:43:44.608Z,25.42
2022-09-20T16:46:37.269Z,25.36
2022-09-20T16:49:28.270Z,25.30
2022-09-20T16:52:18.797Z,25.26
2022-09-20T16:55:11.942Z,25.23
2022-09-20T16:58:01.733Z,25.20
2022-09-20T17:00:51.607Z,25.20
2022-09-20T17:03:42.266Z,25.21
2022-09-20T17:06:34.044Z,25.22
2022-09-20T17:09:23.840Z,25.29
2022-09-20T17:12:18.899Z,25.34
2022-09-20T17:15:13.412Z,25.38
2022-09-20T17:18:05.554Z,25.47
2022-09-20T17:20:56.292Z,25.59
2022-09-20T17:23:51.054Z,25.73
2022-09-20T17:26:44.688Z,25.87
2022-09-20T17:29:34.675Z,25.98
2022-09-20T17:32:25.089Z,26.06
2022-09-20T17:35:16.620Z,26.10
2022-09-20T17:38:06.657Z,26.13
2022-09-20T17:41:04.099Z,26.17
2022-09-20T17:43:57.113Z,26.20
2022-09-20T17:46:49.682Z,26.22
2022-09-20T17:49:40.819Z,26.20
2022-09-20T17:52:31.395Z,26.17
2022-09-20T17:55:21.353Z,26.15
2022-09-20T17:58:11.017Z,26.14
2022-09-20T18:01:12.464Z,26.14
2022-09-20T18:04:05.119Z,26.18
2022-09-20T18:06:56.219Z,26.22
2022-09-20T18:09:46.376Z,26.22
2022-09-20T18:12:36.907Z,26.19
2022-09-20T18:15:28.061Z,26.14
2022-09-20T18:18:18.290Z,26.08
2022-09-20T18:21:15.732Z,26.03
2022-09-20T18:24:08.815Z,26.00
2022-09-20T18:27:00.609Z,25.98
2022-09-20T18:29:50.833Z,25.94
2022-09-20T18:32:44.408Z,25.92
2022-09-20T18:35:35.210Z,25.89
2022-09-20T18:38:25.988Z,25.88
2022-09-20T18:41:16.606Z,25.87
2022-09-20T18:44:08.619Z,25.88
2022-09-20T18:47:00.199Z,25.89
2022-09-20T18:49:50.670Z,25.87
2022-09-20T18:52:40.955Z,25.87
2022-09-20T18:55:31.782Z,25.86
2022-09-20T18:58:24.734Z,25.84
2022-09-20T19:01:36.206Z,25.85
2022-09-20T19:04:41.005Z,25.85
2022-09-20T19:07:41.792Z,25.83
2022-09-20T19:10:41.720Z,25.81
2022-09-20T19:13:40.097Z,25.81
2022-09-20T19:16:36.799Z,25.81
2022-09-20T19:19:36.595Z,25.82
2022-09-20T19:22:36.152Z,25.83
2022-09-20T19:25:32.640Z,25.85
2022-09-20T19:28:23.611Z,25.89
2022-09-20T19:31:24.391Z,25.91
2022-09-20T19:34:18.935Z,25.88
2022-09-20T19:37:18.803Z,25.87
2022-09-20T19:40:21.344Z,25.84
2022-09-20T19:43:29.106Z,25.83
2022-09-20T19:46:35.933Z,25.85
2022-09-20T19:49:31.525Z,25.84
2022-09-20T19:52:23.042Z,25.82
2022-09-20T19:55:17.261Z,25.77
2022-09-20T19:58:09.100Z,25.71
2022-09-20T20:00:59.955Z,25.67
2022-09-20T20:03:50.952Z,25.65
2022-09-20T20:06:50.060Z,25.60
2022-09-20T20:09:46.911Z,25.56
2022-09-20T20:12:45.773Z,25.54
2022-09-20T20:15:46.356Z,25.51
2022-09-20T20:18:44.616Z,25.48
2022-09-20T20:21:41.800Z,25.44
2022-09-20T20:24:38.903Z,25.37
2022-09-20T20:27:31.446Z,25.29
2022-09-20T20:30:21.659Z,25.23
2022-09-20T20:33:17.150Z,25.16
2022-09-20T20:36:09.129Z,25.08
2022-09-20T20:39:00.180Z,25.00
2022-09-20T20:41:52.980Z,24.96
2022-09-20T20:44:43.477Z,24.94
2022-09-20T20:47:34.407Z,24.91
2022-09-20T20:50:25.162Z,24.86
2022-09-20T20:53:14.980Z,24.80
2022-09-20T20:56:07.918Z,24.75
2022-09-20T20:59:00.834Z,24.68
2022-09-20T21:01:50.397Z,24.63
2022-09-20T21:04:40.854Z,24.58
2022-09-20T21:07:31.204Z,24.53
2022-09-20T21:10:21.838Z,24.49
2022-09-20T21:13:11.993Z,24.45
2022-09-20T21:16:12.252Z,24.40
2022-09-20T21:19:02.575Z,24.36
2022-09-20T21:21:52.641Z,24.32
2022-09-20T21:24:42.649Z,24.29
2022-09-20T21:27:36.147Z,24.26
2022-09-20T21:30:26.703Z,24.24
2022-09-20T21:33:16.626Z,24.22
2022-09-20T21:36:09.251Z,24.20
2022-09-20T21:38:59.492Z,24.18
2022-09-20T21:41:49.940Z,24.17
2022-09-20T21:44:43.423Z,24.15
2022-09-20T21:47:33.558Z,24.13
2022-09-20T21:50:24.270Z,24.10
2022-09-20T21:53:17.166Z,24.07
2022-09-20T21:56:09.516Z,24.04
2022-09-20T21:59:02.208Z,24.03
2022-09-20T22:01:51.907Z,24.03
2022-09-20T22:04:41.916Z,24.02
2022-09-20T22:07:31.635Z,24.02
2022-09-20T22:10:21.873Z,24.01
2022-09-20T22:13:11.631Z,24.00
2022-09-20T22:16:08.404Z,23.99
2022-09-20T22:19:00.524Z,23.97
2022-09-20T22:21:51.876Z,23.97
2022-09-20T22:24:41.727Z,23.96
2022-09-20T22:27:31.503Z,23.94
2022-09-20T22:30:20.992Z,23.93
2022-09-20T22:33:10.736Z,23.93
2022-09-20T22:36:01.021Z,23.91
2022-09-20T22:38:51.501Z,23.89
2022-09-20T22:41:42.740Z,23.89
2022-09-20T22:44:34.786Z,23.89
2022-09-20T22:47:25.122Z,23.89
2022-09-20T22:50:15.295Z,23.89
2022-09-20T22:53:05.382Z,23.86
2022-09-20T22:55:55.331Z,23.82
2022-09-20T22:58:47.101Z,23.79
2022-09-20T23:01:41.166Z,23.76
2022-09-20T23:04:31.361Z,23.74
2022-09-20T23:07:21.885Z,23.72
2022-09-20T23:10:12.409Z,23.69
2022-09-20T23:13:02.649Z,23.68
2022-09-20T23:15:52.419Z,23.66
2022-09-20T23:18:42.108Z,23.64
2022-09-20T23:21:33.334Z,23.61
2022-09-20T23:24:24.027Z,23.58
2022-09-20T23:27:14.626Z,23.55
2022-09-20T23:30:05.346Z,23.52
2022-09-20T23:32:56.018Z,23.48
2022-09-20T23:35:49.619Z,23.46
2022-09-20T23:38:40.113Z,23.44
2022-09-20T23:41:31.449Z,23.43
2022-09-20T23:44:21.491Z,23.41
2022-09-20T23:47:11.644Z,23.40
2022-09-20T23:50:01.561Z,23.40
2022-09-20T23:52:51.189Z,23.40
2022-09-20T23:55:41.015Z,23.40
2022-09-20T23:58:31.335Z,23.41
